Time;durP1;ratioP1;P1;durP2;ratioP2;P2;SDS_P1;SDS_P2;PMS_P1;PMS_P2;Temp;Humidity;BMP_temperature;BMP_pressure;BME280_temperature;BME280_humidity;BME280_pressure;Samples;Min_cycle;Max_cycle;Signal;HPM_P1;HPM_P2
2023/06/24 00:00:06;;;;;;;7.05;4.85;;;18.30;61.80;;;20.44;45.06;98478.66;4954094;29;20510;-41
2023/06/24 00:02:38;;;;;;;5.20;3.92;;;18.20;62.00;;;20.40;44.93;98476.59;4955613;28;20043;-41
2023/06/24 00:05:08;;;;;;;5.82;4.47;;;18.20;62.20;;;20.34;45.40;98480.13;4954266;28;20517;-42
2023/06/24 00:07:44;;;;;;;6.32;4.97;;;18.10;62.60;;;20.30;45.12;98482.38;4953593;28;20058;-42
2023/06/24 00:10:14;;;;;;;5.65;4.40;;;18.10;62.50;;;20.27;45.32;98480.06;4954655;28;20055;-51
2023/06/24 00:12:44;;;;;;;5.57;4.22;;;18.10;62.30;;;20.21;45.11;98483.59;4952878;29;20075;-49
2023/06/24 00:15:12;;;;;;;5.57;4.65;;;18.10;62.30;;;20.19;45.35;98488.38;4951265;29;20054;-52
2023/06/24 00:17:40;;;;;;;6.55;4.75;;;18.10;62.00;;;20.14;45.29;98485.44;4953670;29;20054;-49
2023/06/24 00:20:13;;;;;;;6.60;4.40;;;18.00;62.30;;;20.10;45.41;98489.59;4953792;29;20048;-48
2023/06/24 00:22:43;;;;;;;5.28;4.45;;;18.00;62.30;;;20.06;45.48;98481.03;4953916;29;20058;-52
2023/06/24 00:25:11;;;;;;;6.72;5.03;;;18.00;62.60;;;20.05;45.96;98480.22;4953714;29;20047;-51
2023/06/24 00:27:39;;;;;;;5.22;4.05;;;18.00;62.20;;;20.05;45.70;98476.69;4953719;29;20499;-51
2023/06/24 00:30:09;;;;;;;7.43;4.80;;;18.00;62.10;;;20.03;45.36;98476.88;4953258;28;20058;-47
2023/06/24 00:32:37;;;;;;;5.15;4.03;;;18.00;61.90;;;20.02;45.75;98474.38;4953745;29;20050;-52
2023/06/24 00:35:05;;;;;;;6.00;4.32;;;18.00;61.70;;;19.98;45.45;98476.63;4953379;28;20054;-48
2023/06/24 00:37:33;;;;;;;4.93;4.32;;;17.90;62.00;;;19.89;45.56;98474.31;4954064;28;20051;-41
2023/06/24 00:40:00;;;;;;;5.15;4.25;;;17.70;62.40;;;19.88;45.71;98478.06;4946438;29;20414;-42
2023/06/24 00:42:28;;;;;;;7.00;4.47;;;17.80;62.60;;;19.84;45.99;98474.91;4953714;29;20050;-44
2023/06/24 00:44:56;;;;;;;5.15;4.13;;;17.80;63.00;;;19.83;46.04;98476.81;4935384;29;20047;-42
2023/06/24 00:47:25;;;;;;;6.10;4.40;;;17.80;62.60;;;19.86;45.98;98467.44;4928925;29;20051;-41
2023/06/24 00:49:53;;;;;;;6.68;5.07;;;17.90;62.10;;;19.85;45.93;98476.56;4943435;29;20055;-42
2023/06/24 00:52:21;;;;;;;5.07;3.67;;;17.90;61.90;;;19.86;45.72;98470.16;4920362;29;20043;-42
2023/06/24 00:54:48;;;;;;;6.38;4.05;;;17.90;61.70;;;19.89;45.87;98474.31;4953517;29;20062;-42
2023/06/24 00:57:19;;;;;;;5.43;3.97;;;18.00;61.10;;;19.90;45.45;98474.13;4952507;28;20055;-41
2023/06/24 00:59:47;;;;;;;7.25;3.95;;;18.00;61.10;;;19.92;45.73;98474.75;4936481;29;20058;-43
2023/06/24 01:02:15;;;;;;;6.85;4.55;;;18.10;61.00;;;19.94;45.67;98469.97;4951792;29;20044;-43
2023/06/24 01:04:43;;;;;;;6.47;5.00;;;18.10;61.00;;;19.95;45.60;98479.75;4952457;28;20047;-41
2023/06/24 01:07:10;;;;;;;6.20;4.03;;;18.10;60.90;;;19.93;45.57;98472.88;4952985;29;20043;-43
2023/06/24 01:09:38;;;;;;;6.57;3.63;;;18.10;61.10;;;19.92;45.38;98476.63;4935930;29;20499;-42
2023/06/24 01:12:07;;;;;;;6.03;4.18;;;18.00;60.80;;;19.92;45.59;98480.16;4951008;29;20059;-43
2023/06/24 01:14:36;;;;;;;5.53;4.32;;;18.00;60.70;;;19.92;45.68;98480.16;4950955;29;20079;-42
2023/06/24 01:17:17;;;;;;;6.38;3.83;;;18.10;60.70;;;19.93;45.53;98479.13;4934719;29;20055;-43
2023/06/24 01:20:10;;;;;;;6.40;4.30;;;18.10;60.90;;;19.92;45.61;98482.03;4936040;29;20062;-46
2023/06/24 01:23:16;;;;;;;5.35;4.03;;;18.10;60.60;;;19.90;45.84;98470.59;4946151;29;20108;-41
2023/06/24 01:26:20;;;;;;;5.13;3.90;;;18.10;61.40;;;19.89;45.50;98477.00;4928304;29;20055;-42
2023/06/24 01:29:35;;;;;;;4.30;3.80;;;18.00;61.70;;;19.83;45.85;98475.94;4948339;28;20526;-42
2023/06/24 01:32:16;;;;;;;4.63;3.72;;;17.90;61.90;;;19.86;45.68;98470.16;4933772;29;20054;-42
2023/06/24 01:35:01;;;;;;;5.28;3.78;;;18.00;61.40;;;19.85;45.52;98479.28;4951266;29;20525;-45
2023/06/24 01:37:47;;;;;;;5.20;3.78;;;18.00;61.40;;;19.85;45.61;98473.88;4936167;29;20070;-42
2023/06/24 01:40:37;;;;;;;4.80;3.83;;;18.00;61.10;;;19.84;45.76;98469.53;4937349;29;20551;-43
2023/06/24 01:43:09;;;;;;;6.38;4.57;;;18.10;61.20;;;19.89;45.80;98464.34;4928902;28;20058;-42
2023/06/24 01:45:49;;;;;;;6.15;4.35;;;18.10;60.50;;;19.88;45.89;98465.38;4953255;28;20054;-42
2023/06/24 01:48:24;;;;;;;5.30;4.47;;;18.10;60.70;;;19.90;45.63;98467.88;4935522;29;20043;-42
2023/06/24 01:51:13;;;;;;;7.05;4.72;;;18.10;60.50;;;19.87;45.86;98458.28;4936397;29;20502;-41
2023/06/24 01:53:49;;;;;;;5.65;4.20;;;18.10;60.70;;;19.86;45.60;98462.88;4916289;29;20446;-41
2023/06/24 01:56:22;;;;;;;6.15;4.82;;;18.10;60.90;;;19.86;45.94;98464.75;4935777;29;20541;-41
2023/06/24 01:58:54;;;;;;;8.93;4.50;;;18.10;60.90;;;19.81;45.81;98465.38;4950604;29;20051;-41
2023/06/24 02:01:23;;;;;;;5.93;4.47;;;18.00;61.30;;;19.80;45.91;98465.56;4948422;29;20071;-41
2023/06/24 02:03:54;;;;;;;6.40;4.68;;;17.90;61.40;;;19.77;46.17;98468.66;4936045;29;20047;-42
2023/06/24 02:06:24;;;;;;;6.45;5.13;;;17.80;61.70;;;19.72;46.21;98454.94;4935680;29;20039;-41
2023/06/24 02:08:54;;;;;;;6.68;4.47;;;17.80;62.00;;;19.67;46.26;98458.19;4920045;29;20398;-42
2023/06/24 02:11:23;;;;;;;5.60;4.43;;;17.70;62.30;;;19.63;46.58;98454.22;4939121;29;20047;-41
2023/06/24 02:13:53;;;;;;;6.20;4.38;;;17.70;62.70;;;19.58;46.57;98449.41;4923354;29;20426;-41
2023/06/24 02:16:22;;;;;;;6.85;4.70;;;17.50;63.10;;;19.50;46.46;98451.44;4938546;29;20055;-42
2023/06/24 02:18:50;;;;;;;6.63;5.20;;;17.40;63.50;;;19.44;46.77;98461.16;4922792;29;20508;-41
2023/06/24 02:21:19;;;;;;;6.70;4.70;;;17.40;63.90;;;19.40;46.92;98454.50;4939157;29;20050;-41
2023/06/24 02:23:48;;;;;;;6.78;4.95;;;17.40;64.10;;;19.36;46.76;98454.03;4938914;29;20131;-41
2023/06/24 02:26:18;;;;;;;8.30;5.10;;;17.30;64.60;;;19.30;46.99;98454.00;4922921;28;20078;-41
2023/06/24 02:28:46;;;;;;;5.97;5.10;;;17.20;64.90;;;19.24;46.98;98453.75;4937877;29;20051;-41
2023/06/24 02:31:15;;;;;;;7.90;5.95;;;17.10;65.20;;;19.18;47.32;98451.03;4938932;29;20051;-41
2023/06/24 02:33:43;;;;;;;6.38;4.70;;;17.00;65.80;;;19.10;47.57;98449.31;4955840;29;20047;-41
2023/06/24 02:36:12;;;;;;;6.78;5.03;;;17.00;66.30;;;19.03;47.67;98438.44;4953965;28;20051;-42
2023/06/24 02:38:39;;;;;;;6.47;5.60;;;16.90;66.80;;;18.99;47.91;98441.75;4953934;28;20124;-42
2023/06/24 02:41:07;;;;;;;7.25;4.43;;;16.90;66.90;;;18.95;48.12;98440.47;4955640;29;20047;-41
2023/06/24 02:43:36;;;;;;;7.07;4.68;;;16.80;67.20;;;18.92;48.18;98440.84;4953968;29;20047;-41
2023/06/24 02:46:05;;;;;;;5.60;4.50;;;16.90;67.30;;;18.91;48.26;98440.03;4949015;28;20051;-42
2023/06/24 02:48:36;;;;;;;8.02;4.80;;;16.90;67.20;;;18.94;48.13;98444.19;4953626;29;20047;-42
2023/06/24 02:51:06;;;;;;;7.43;5.20;;;17.00;66.80;;;18.95;48.29;98443.16;4949025;29;20047;-41
2023/06/24 02:53:36;;;;;;;6.78;5.15;;;17.00;66.60;;;18.95;48.22;98438.59;4938318;29;20070;-42
2023/06/24 02:56:06;;;;;;;7.05;4.60;;;17.10;66.30;;;18.96;48.28;98444.81;4948972;28;20533;-42
2023/06/24 02:58:39;;;;;;;6.07;4.35;;;17.10;66.40;;;18.91;48.14;98440.03;4938122;29;20043;-41
2023/06/24 03:01:12;;;;;;;6.00;4.88;;;17.00;66.70;;;18.87;48.28;98444.16;4939052;29;20503;-44
2023/06/24 03:03:54;;;;;;;4.95;4.13;;;16.90;66.60;;;18.87;48.38;98439.59;4955282;28;20411;-43
2023/06/24 03:06:23;;;;;;;5.75;4.57;;;16.90;66.80;;;18.87;48.28;98446.84;4954099;28;20054;-42
2023/06/24 03:08:54;;;;;;;6.10;4.70;;;17.00;66.50;;;18.87;48.38;98444.97;4947324;29;20422;-43
2023/06/24 03:11:23;;;;;;;5.47;4.45;;;17.00;66.30;;;18.87;48.41;98449.53;4953698;28;20047;-41
2023/06/24 03:13:51;;;;;;;6.68;5.45;;;16.90;66.60;;;18.82;48.30;98450.09;4922289;29;20506;-41
2023/06/24 03:16:26;;;;;;;6.22;4.68;;;16.90;66.90;;;18.77;48.38;98452.53;4950304;29;20062;-42
2023/06/24 03:19:08;;;;;;;8.75;4.97;;;16.80;67.00;;;18.70;48.54;98460.56;4939229;29;20510;-41
2023/06/24 03:21:35;;;;;;;6.72;5.03;;;16.70;67.60;;;18.66;48.73;98467.38;4952556;28;20098;-42
2023/06/24 03:24:08;;;;;;;6.47;5.30;;;16.60;67.70;;;18.67;48.61;98468.22;4953279;29;20102;-42
2023/06/24 03:26:40;;;;;;;7.28;4.35;;;16.70;67.60;;;18.68;48.71;98467.19;4952420;29;20078;-41
2023/06/24 03:29:11;;;;;;;6.65;4.82;;;16.80;67.40;;;18.68;48.78;98465.31;4953204;29;20415;-42
2023/06/24 03:31:45;;;;;;;5.30;4.38;;;16.80;67.50;;;18.68;48.73;98467.19;4953524;29;20047;-42
2023/06/24 03:34:17;;;;;;;8.88;6.03;;;16.70;67.80;;;18.66;48.87;98470.06;4953551;28;20574;-41
2023/06/24 03:36:45;;;;;;;6.22;4.70;;;16.70;68.30;;;18.60;49.03;98476.25;4952996;29;20239;-41
2023/06/24 03:39:15;;;;;;;7.15;5.40;;;16.60;68.80;;;18.59;49.15;98471.88;4949209;29;20434;-42
2023/06/24 03:41:43;;;;;;;8.02;5.28;;;16.60;68.70;;;18.60;49.26;98472.72;4953092;28;20352;-43
2023/06/24 03:44:12;;;;;;;7.10;5.13;;;16.70;68.80;;;18.59;49.22;98479.97;4953299;28;20070;-41
2023/06/24 03:46:41;;;;;;;5.93;5.22;;;16.70;68.80;;;18.60;49.29;98478.09;4952134;29;20521;-41
2023/06/24 03:49:11;;;;;;;7.95;5.68;;;16.70;68.60;;;18.62;49.35;98476.06;4948095;29;20518;-41
2023/06/24 03:51:38;;;;;;;9.23;5.38;;;16.80;68.40;;;18.65;49.37;98484.59;4936671;29;20058;-43
2023/06/24 03:54:06;;;;;;;6.35;5.13;;;16.80;68.20;;;18.67;49.38;98484.41;4952631;29;20052;-42
2023/06/24 03:56:34;;;;;;;7.43;5.63;;;16.90;68.10;;;18.67;49.42;98489.81;4960555;28;20051;-41
2023/06/24 03:59:02;;;;;;;8.02;5.43;;;16.90;67.80;;;18.67;49.57;98485.22;4953896;29;20051;-41
2023/06/24 04:01:33;;;;;;;7.18;6.10;;;17.00;67.80;;;18.67;49.56;98487.09;4954355;29;20047;-41
2023/06/24 04:04:00;;;;;;;7.03;5.85;;;16.90;68.20;;;18.67;49.55;98493.31;4952387;29;20498;-41
2023/06/24 04:06:28;;;;;;;7.35;5.00;;;16.90;68.50;;;18.68;49.65;98489.59;4944743;29;20051;-41
2023/06/24 04:08:56;;;;;;;6.13;5.13;;;16.90;68.60;;;18.68;49.76;98496.84;4953559;29;20047;-41
2023/06/24 04:11:24;;;;;;;5.95;5.00;;;16.80;69.20;;;18.68;49.79;98503.06;4952473;29;20052;-41
2023/06/24 04:13:51;;;;;;;6.22;5.35;;;16.80;69.30;;;18.70;49.76;98505.56;4953761;29;20044;-41
2023/06/24 04:16:19;;;;;;;8.07;5.93;;;16.90;70.00;;;18.68;49.99;98510.34;4952216;29;20058;-41
2023/06/24 04:18:46;;;;;;;8.75;6.60;;;16.90;68.90;;;18.69;50.08;98512.00;4951986;29;20498;-42
2023/06/24 04:21:14;;;;;;;8.38;5.53;;;17.10;68.80;;;18.69;50.27;98512.00;4951419;28;20077;-42
2023/06/24 04:23:42;;;;;;;7.97;5.78;;;17.10;68.80;;;18.67;50.34;98512.19;4944372;29;20051;-41
2023/06/24 04:26:09;;;;;;;7.00;5.88;;;17.00;69.00;;;18.70;50.32;98506.41;4953830;29;20052;-44
2023/06/24 04:28:38;;;;;;;7.00;5.85;;;17.00;69.20;;;18.69;50.35;98506.63;4935953;29;20510;-41
2023/06/24 04:31:05;;;;;;;14.43;5.93;;;17.10;69.10;;;18.71;50.42;98507.25;4952113;29;20120;-42
2023/06/24 04:33:33;;;;;;;7.15;5.75;;;17.10;69.20;;;18.75;50.58;98510.41;4951338;28;20059;-42
2023/06/24 04:36:02;;;;;;;6.82;5.15;;;17.10;69.20;;;18.77;50.48;98517.28;4951838;29;20047;-42
2023/06/24 04:38:31;;;;;;;6.63;5.47;;;17.20;69.00;;;18.78;50.57;98526.19;4951528;29;20055;-41
2023/06/24 04:41:00;;;;;;;7.47;5.53;;;17.20;69.10;;;18.80;50.65;98524.16;4951944;29;20051;-42
2023/06/24 04:43:28;;;;;;;7.45;6.68;;;17.30;69.30;;;18.78;50.91;98521.63;4953477;29;20047;-41
2023/06/24 04:45:56;;;;;;;6.75;5.60;;;17.30;69.20;;;18.77;50.91;98528.06;4953612;29;20414;-41
2023/06/24 04:48:24;;;;;;;7.45;6.28;;;17.30;69.10;;;18.80;50.92;98525.00;4952743;28;20074;-41
2023/06/24 04:50:53;;;;;;;8.00;6.10;;;17.30;69.30;;;18.84;50.87;98520.06;4936297;29;20051;-42
2023/06/24 04:53:21;;;;;;;6.95;5.93;;;17.30;69.40;;;18.86;50.99;98513.47;4952975;28;20051;-41
2023/06/24 04:55:49;;;;;;;7.32;5.22;;;17.40;69.40;;;18.89;50.98;98515.75;4953360;28;20154;-41
2023/06/24 04:58:17;;;;;;;6.90;5.32;;;17.40;69.50;;;18.92;51.29;98519.09;4953106;28;20490;-43
2023/06/24 05:00:44;;;;;;;8.35;6.47;;;17.40;70.20;;;18.95;51.23;98516.84;4953040;29;20096;-41
2023/06/24 05:03:12;;;;;;;8.45;6.38;;;17.40;70.50;;;19.00;51.27;98508.16;4953303;29;20051;-41
2023/06/24 05:05:40;;;;;;;8.82;6.57;;;17.40;70.60;;;19.02;51.28;98514.22;4952983;29;20517;-43
2023/06/24 05:08:08;;;;;;;7.55;6.13;;;17.40;71.00;;;19.04;51.48;98515.69;4952788;28;20066;-41
2023/06/24 05:10:35;;;;;;;8.07;5.95;;;17.40;70.90;;;19.08;51.31;98514.28;4952844;29;20412;-42
2023/06/24 05:13:03;;;;;;;7.88;5.88;;;17.50;71.30;;;19.15;51.47;98525.09;4953173;29;20422;-43
2023/06/24 05:15:30;;;;;;;7.75;6.85;;;17.50;71.20;;;19.16;51.49;98529.50;4952851;28;20047;-41
2023/06/24 05:17:58;;;;;;;10.45;6.18;;;17.50;71.30;;;19.22;51.32;98523.31;4952717;29;20047;-41
2023/06/24 05:20:26;;;;;;;11.38;6.93;;;17.60;71.20;;;19.26;51.31;98532.69;4952900;29;20047;-43
2023/06/24 05:22:54;;;;;;;8.63;6.40;;;17.60;71.10;;;19.27;51.23;98533.53;4952154;28;20042;-41
2023/06/24 05:25:22;;;;;;;7.88;6.05;;;17.70;71.00;;;19.30;51.42;98532.31;4952691;28;20084;-41
2023/06/24 05:27:50;;;;;;;7.45;5.78;;;17.80;70.70;;;19.31;51.65;98526.72;4952528;29;20411;-41
2023/06/24 05:30:17;;;;;;;7.50;6.10;;;17.90;70.70;;;19.33;51.81;98530.06;4952989;29;20048;-41
2023/06/24 05:32:45;;;;;;;9.02;7.40;;;17.90;71.00;;;19.40;51.91;98536.31;4945320;29;20039;-41
2023/06/24 05:35:13;;;;;;;7.60;5.97;;;18.00;71.20;;;19.47;51.86;98537.22;4952866;29;20039;-42
2023/06/24 05:37:40;;;;;;;6.68;5.70;;;18.00;71.10;;;19.54;52.06;98536.41;4952331;28;20043;-44
2023/06/24 05:40:09;;;;;;;7.90;6.40;;;18.10;71.50;;;19.61;51.79;98534.59;4952739;29;20047;-46
2023/06/24 05:42:37;;;;;;;7.70;5.50;;;18.10;71.70;;;19.66;51.79;98542.97;4952554;28;20043;-41
2023/06/24 05:45:06;;;;;;;8.07;5.93;;;18.20;71.60;;;19.69;51.85;98542.53;4955345;28;20043;-41
2023/06/24 05:47:33;;;;;;;6.88;5.90;;;18.30;71.20;;;19.72;51.64;98546.78;4955980;29;20407;-47
2023/06/24 05:50:01;;;;;;;7.43;6.15;;;18.40;70.60;;;19.79;52.00;98550.31;4956215;29;20051;-42
2023/06/24 05:52:29;;;;;;;8.20;6.35;;;18.50;70.60;;;19.86;51.95;98556.63;4956219;29;20428;-47
2023/06/24 05:54:56;;;;;;;6.85;5.55;;;18.50;70.30;;;19.93;51.55;98553.94;4956525;29;20050;-46
2023/06/24 05:57:24;;;;;;;6.28;5.68;;;18.60;69.90;;;20.00;51.17;98550.25;4956096;29;20047;-44
2023/06/24 05:59:52;;;;;;;6.78;5.97;;;18.70;69.80;;;20.09;51.44;98553.63;4956051;29;20047;-42
2023/06/24 06:02:19;;;;;;;7.63;5.65;;;18.70;69.60;;;20.14;50.98;98548.47;4956009;28;20043;-42
2023/06/24 06:04:47;;;;;;;6.93;5.50;;;18.80;69.10;;;20.18;51.18;98555.13;4946709;29;20048;-46
2023/06/24 06:07:15;;;;;;;8.00;5.72;;;18.90;68.80;;;20.25;50.66;98547.03;4956019;28;20407;-46
2023/06/24 06:09:43;;;;;;;6.18;5.47;;;19.00;68.10;;;20.33;50.89;98546.03;4955978;29;20396;-44
2023/06/24 06:12:35;;;;;;;6.15;5.35;;;19.00;67.90;;;20.34;50.74;98543.13;4939294;29;20043;-47
2023/06/24 06:15:03;;;;;;;6.10;5.32;;;19.10;67.40;;;20.44;50.28;98548.16;4950207;28;20047;-46
2023/06/24 06:17:32;;;;;;;7.43;5.00;;;19.20;67.10;;;20.50;50.10;98546.50;4952238;29;20498;-44
2023/06/24 06:20:00;;;;;;;8.35;5.43;;;19.20;66.10;;;20.56;49.75;98548.41;4938966;29;20403;-43
2023/06/24 06:22:27;;;;;;;7.63;4.90;;;19.30;65.70;;;20.60;49.62;98553.22;4955988;29;20051;-44
2023/06/24 06:24:55;;;;;;;7.75;4.75;;;19.40;65.40;;;20.64;49.45;98549.06;4956055;29;20425;-45
2023/06/24 06:27:22;;;;;;;6.85;5.38;;;19.50;65.10;;;20.72;49.54;98542.63;4955789;29;20046;-44
2023/06/24 06:29:50;;;;;;;6.97;5.32;;;19.50;65.30;;;20.80;49.64;98536.19;4954453;28;20503;-42
2023/06/24 06:32:17;;;;;;;6.50;5.43;;;19.60;65.20;;;20.87;49.33;98541.66;4956284;28;20384;-41
2023/06/24 06:34:45;;;;;;;5.68;4.70;;;19.70;65.00;;;20.92;49.28;98542.69;4955491;28;20063;-43
2023/06/24 06:37:12;;;;;;;7.55;5.40;;;19.80;64.60;;;20.95;49.30;98536.84;4955545;29;20455;-42
2023/06/24 06:39:40;;;;;;;6.15;5.05;;;19.80;64.00;;;21.02;48.97;98537.69;4955442;28;20047;-43
2023/06/24 06:42:08;;;;;;;7.10;5.45;;;19.80;64.10;;;21.07;48.93;98536.25;4954489;29;20522;-43
2023/06/24 06:44:35;;;;;;;6.90;5.15;;;19.90;63.50;;;21.13;48.68;98543.53;4955235;29;20066;-44
2023/06/24 06:47:03;;;;;;;6.25;5.05;;;19.90;63.50;;;21.17;48.75;98534.81;4957009;28;20051;-44
2023/06/24 06:49:31;;;;;;;6.60;5.10;;;20.00;62.80;;;21.22;47.97;98534.16;4954622;29;20050;-48
2023/06/24 06:51:58;;;;;;;5.40;4.90;;;20.10;61.80;;;21.27;48.02;98538.94;4955416;29;20050;-43
2023/06/24 06:54:26;;;;;;;8.23;5.18;;;20.10;62.30;;;21.31;47.89;98534.81;4955481;29;20051;-45
2023/06/24 06:56:55;;;;;;;6.05;4.60;;;20.20;61.90;;;21.38;47.74;98535.63;4954291;28;20043;-45
2023/06/24 06:59:23;;;;;;;6.03;5.05;;;20.20;61.80;;;21.47;48.02;98533.56;4955290;29;20067;-42
2023/06/24 07:01:50;;;;;;;8.68;4.85;;;20.30;61.60;;;21.50;47.65;98539.41;4955025;28;20047;-42
2023/06/24 07:04:18;;;;;;;6.00;5.40;;;20.40;61.20;;;21.54;47.24;98540.66;4955185;29;20039;-44
2023/06/24 07:06:45;;;;;;;6.03;5.40;;;20.40;60.90;;;21.57;47.05;98537.50;4954844;29;20043;-41
2023/06/24 07:09:14;;;;;;;7.50;5.90;;;20.40;60.50;;;21.58;46.84;98546.50;4954787;28;20043;-41
2023/06/24 07:11:43;;;;;;;5.85;4.72;;;20.40;60.00;;;21.63;46.92;98543.97;4955074;29;20058;-41
2023/06/24 07:14:10;;;;;;;8.00;4.97;;;20.50;59.70;;;21.66;46.43;98543.56;4953675;28;20503;-42
2023/06/24 07:16:38;;;;;;;6.82;4.93;;;20.50;59.60;;;21.70;46.82;98539.38;4945652;29;20047;-42
2023/06/24 07:19:06;;;;;;;5.53;4.95;;;20.50;59.60;;;21.76;46.38;98545.84;4954965;28;20058;-41
2023/06/24 07:21:33;;;;;;;5.57;4.88;;;20.60;59.30;;;21.80;46.09;98544.38;4953645;28;20070;-41
2023/06/24 07:24:01;;;;;;;6.70;5.22;;;20.60;58.40;;;21.83;46.12;98536.66;4954768;29;20044;-41
2023/06/24 07:26:30;;;;;;;8.05;5.85;;;20.70;58.60;;;21.88;45.61;98536.00;4929619;29;20048;-41
2023/06/24 07:28:58;;;;;;;5.68;4.13;;;20.70;58.20;;;21.93;45.89;98535.38;4948679;28;20047;-41
2023/06/24 07:31:37;;;;;;;5.75;4.28;;;20.80;57.70;;;21.98;45.38;98543.69;4939347;29;20043;-41
2023/06/24 07:34:05;;;;;;;6.38;5.03;;;20.80;57.00;;;22.04;45.17;98542.81;4954714;28;20051;-41
2023/06/24 07:36:33;;;;;;;7.18;4.93;;;20.90;56.70;;;22.07;44.58;98539.69;4954161;29;20062;-42
2023/06/24 07:39:00;;;;;;;7.03;4.47;;;20.90;56.30;;;22.13;44.53;98543.44;4937559;29;20043;-42
2023/06/24 07:41:28;;;;;;;5.28;4.32;;;21.00;56.20;;;22.15;44.50;98528.59;4954576;29;20495;-42
2023/06/24 07:43:55;;;;;;;6.03;4.53;;;21.10;56.10;;;22.23;44.45;98532.97;4954482;29;20043;-43
2023/06/24 07:46:23;;;;;;;6.57;4.50;;;21.10;56.10;;;22.29;44.42;98536.72;4954260;29;20054;-43
2023/06/24 07:48:51;;;;;;;4.80;4.00;;;21.20;55.60;;;22.36;44.24;98537.53;4954057;29;20039;-49
2023/06/24 07:51:18;;;;;;;6.65;4.93;;;21.30;55.40;;;22.40;43.80;98539.59;4937419;29;20043;-48
2023/06/24 07:53:46;;;;;;;5.60;4.55;;;21.30;54.90;;;22.42;43.35;98539.38;4954345;29;20051;-49
2023/06/24 07:56:14;;;;;;;6.00;4.53;;;21.30;54.40;;;22.44;43.73;98531.88;4954275;29;20043;-49
2023/06/24 07:58:41;;;;;;;5.63;4.55;;;21.30;54.50;;;22.49;43.86;98537.47;4955815;28;20078;-47
2023/06/24 08:01:09;;;;;;;5.53;4.43;;;21.30;54.70;;;22.53;43.56;98527.84;4954463;29;20058;-48
2023/06/24 08:03:37;;;;;;;4.85;3.72;;;21.40;54.60;;;22.57;43.30;98523.66;4953995;29;20047;-52
2023/06/24 08:06:04;;;;;;;12.20;7.88;;;21.40;54.30;;;22.62;43.12;98531.13;4953727;29;20047;-47
2023/06/24 08:08:32;;;;;;;6.95;4.40;;;21.50;54.20;;;22.67;43.38;98527.78;4920286;29;20047;-47
2023/06/24 08:11:00;;;;;;;6.65;4.50;;;21.50;54.30;;;22.74;43.08;98525.84;4953964;29;20039;-49
2023/06/24 08:13:27;;;;;;;4.72;4.07;;;21.60;53.90;;;22.77;42.79;98525.41;4953884;28;20046;-51
2023/06/24 08:15:55;;;;;;;5.20;4.10;;;21.60;53.50;;;22.83;42.36;98531.84;4939054;28;20055;-51
2023/06/24 08:18:23;;;;;;;6.55;4.30;;;21.70;53.10;;;22.85;42.19;98525.16;4951328;28;20494;-51
2023/06/24 08:20:50;;;;;;;5.13;4.32;;;21.70;52.00;;;22.86;41.95;98521.41;4955584;28;20036;-48
2023/06/24 08:23:18;;;;;;;5.00;4.22;;;21.70;52.20;;;22.91;42.02;98520.72;4951595;29;20043;-55
2023/06/24 08:25:45;;;;;;;4.10;3.70;;;21.80;52.30;;;23.03;41.74;98518.16;4953218;29;20047;-53
2023/06/24 08:28:13;;;;;;;4.60;4.10;;;21.90;51.70;;;23.07;41.45;98516.66;4952731;28;20039;-50
2023/06/24 08:30:41;;;;;;;4.18;3.78;;;22.00;51.60;;;23.11;41.01;98516.03;4953510;29;20058;-50
2023/06/24 08:33:08;;;;;;;5.65;3.83;;;22.00;50.70;;;23.13;40.81;98510.38;4952197;29;20048;-49
2023/06/24 08:35:36;;;;;;;4.22;3.50;;;22.00;50.40;;;23.19;40.85;98513.03;4952876;29;20050;-48
2023/06/24 08:38:05;;;;;;;6.18;4.25;;;22.10;50.40;;;23.27;40.30;98513.81;4949637;29;20066;-51
2023/06/24 08:40:34;;;;;;;6.10;4.18;;;22.20;49.60;;;23.33;39.96;98516.47;4953151;29;20047;-48
2023/06/24 08:43:01;;;;;;;4.32;3.53;;;22.20;49.20;;;23.39;39.96;98512.03;4953127;28;20434;-48
2023/06/24 08:45:30;;;;;;;3.58;3.22;;;22.30;49.00;;;23.46;38.99;98515.53;4933991;29;20422;-49
2023/06/24 08:47:58;;;;;;;4.47;2.75;;;22.30;47.40;;;23.51;38.64;98518.38;4952491;29;20371;-49
2023/06/24 08:50:34;;;;;;;4.35;3.15;;;22.40;46.70;;;23.58;38.11;98521.88;4935122;29;20515;-49
2023/06/24 08:53:08;;;;;;;4.75;3.47;;;22.50;45.30;;;23.66;37.89;98517.22;4936262;29;20050;-50
2023/06/24 08:55:42;;;;;;;5.47;3.00;;;22.50;45.50;;;23.68;36.39;98510.50;4936369;29;20059;-52
2023/06/24 08:58:10;;;;;;;3.40;2.90;;;22.60;40.90;;;23.68;36.96;98513.22;4945389;29;20055;-47
2023/06/24 09:00:38;;;;;;;6.88;3.50;;;22.60;44.20;;;23.63;35.77;98509.50;4920314;29;20062;-51
2023/06/24 09:03:05;;;;;;;6.85;3.85;;;22.60;41.50;;;23.68;36.21;98509.66;4952952;29;20050;-49
2023/06/24 09:05:33;;;;;;;4.20;2.92;;;22.60;42.20;;;23.72;36.08;98506.25;4952621;29;20047;-48
2023/06/24 09:08:01;;;;;;;4.47;3.25;;;22.70;43.00;;;23.77;36.33;98509.16;4952573;28;20039;-50
2023/06/24 09:10:34;;;;;;;5.97;4.00;;;22.70;43.30;;;23.84;36.75;98508.28;4953214;28;20514;-49
2023/06/24 09:13:05;;;;;;;4.05;3.40;;;22.70;44.00;;;23.92;37.27;98506.09;4953030;29;20047;-52
2023/06/24 09:15:38;;;;;;;5.88;3.58;;;22.80;44.30;;;24.01;37.00;98501.16;4952879;29;20043;-48
2023/06/24 09:18:05;;;;;;;3.92;3.53;;;22.90;44.70;;;24.09;37.28;98500.03;4948260;28;20043;-53
2023/06/24 09:20:39;;;;;;;10.10;3.15;;;23.00;44.90;;;24.17;35.74;98497.84;4952524;29;20510;-48
2023/06/24 09:23:07;;;;;;;4.97;4.30;;;23.10;42.30;;;24.21;35.96;98491.94;4952591;29;20051;-52
2023/06/24 09:25:34;;;;;;;6.45;3.45;;;23.10;42.90;;;24.23;36.45;98490.63;4952840;29;20043;-51
2023/06/24 09:28:03;;;;;;;4.35;3.92;;;23.20;43.60;;;24.28;36.69;98489.97;4952213;29;20051;-48
2023/06/24 09:30:31;;;;;;;7.78;3.58;;;23.20;44.90;;;24.36;36.73;98481.47;4952737;28;20050;-51
2023/06/24 09:32:58;;;;;;;5.22;3.58;;;23.30;44.40;;;24.43;36.72;98478.66;4952828;28;20059;-52
2023/06/24 09:35:26;;;;;;;6.57;3.50;;;23.40;43.90;;;24.51;35.83;98481.09;4952962;29;20387;-53
2023/06/24 09:38:00;;;;;;;5.80;3.75;;;23.40;43.10;;;24.60;36.23;98478.88;4950802;29;20066;-52
2023/06/24 09:40:29;;;;;;;5.45;3.90;;;23.60;43.10;;;24.70;35.38;98482.72;4952848;28;20051;-54
2023/06/24 09:43:00;;;;;;;5.28;4.00;;;23.60;41.90;;;24.73;34.56;98482.22;4952724;28;20063;-50
2023/06/24 09:45:29;;;;;;;4.13;3.47;;;23.80;40.30;;;24.75;34.46;98471.94;4952762;29;20050;-53
2023/06/24 09:47:58;;;;;;;5.03;3.25;;;23.70;40.40;;;24.80;34.32;98479.41;4944764;29;20047;-51
2023/06/24 09:50:26;;;;;;;5.25;4.00;;;23.80;39.80;;;24.81;34.50;98472.06;4952479;29;20050;-53
2023/06/24 09:52:56;;;;;;;4.82;3.78;;;23.80;40.40;;;24.85;34.85;98468.63;4953018;29;20051;-50
2023/06/24 09:55:24;;;;;;;7.35;4.78;;;23.80;41.10;;;24.89;34.43;98464.41;4951507;29;20066;-53
2023/06/24 09:57:54;;;;;;;5.50;3.45;;;23.90;40.80;;;24.93;34.52;98470.19;4952370;29;20529;-49
2023/06/24 10:00:23;;;;;;;6.60;4.05;;;24.00;39.90;;;24.98;34.00;98473.06;4951387;29;20058;-52
2023/06/24 10:02:54;;;;;;;4.13;3.70;;;24.00;40.20;;;25.02;33.78;98460.63;4935803;29;20052;-51
2023/06/24 10:05:26;;;;;;;6.18;3.50;;;24.00;38.50;;;25.04;33.56;98453.03;4936017;29;20039;-53
2023/06/24 10:07:53;;;;;;;5.43;3.58;;;24.00;39.60;;;25.09;33.61;98446.91;4935180;29;20051;-51
2023/06/24 10:10:21;;;;;;;6.63;3.65;;;24.10;39.60;;;25.15;33.84;98451.41;4952465;29;20035;-51
2023/06/24 10:12:49;;;;;;;5.07;3.50;;;24.10;39.80;;;25.28;33.49;98453.94;4952502;29;20540;-49
2023/06/24 10:15:16;;;;;;;4.85;3.33;;;24.30;39.30;;;25.43;33.09;98452.63;4935320;29;20439;-51
2023/06/24 10:17:45;;;;;;;5.63;3.35;;;24.50;38.50;;;25.51;32.88;98449.53;4952198;29;20055;-51
2023/06/24 10:20:23;;;;;;;4.43;3.40;;;24.50;38.00;;;25.55;32.47;98447.97;4952124;28;20047;-52
2023/06/24 10:22:51;;;;;;;5.18;4.47;;;24.50;38.30;;;25.65;32.85;98447.38;4952613;28;20047;-54
2023/06/24 10:25:19;;;;;;;5.07;2.80;;;24.60;38.00;;;25.75;32.11;98442.16;4952193;29;20046;-49
2023/06/24 10:27:53;;;;;;;3.63;2.72;;;24.80;37.20;;;25.83;31.70;98438.22;4952179;29;20043;-52
2023/06/24 10:30:28;;;;;;;4.05;3.13;;;24.80;35.20;;;25.90;31.08;98439.75;4949594;28;20036;-49